sensor_id;sensor_type;location;lat;lon;timestamp;pressure;altitude;pressure_sealevel;temperature;humidity
67818;BME280;54614;47.576;7.524;2023-03-15T00:02:06;98266.78;;;25.09;32.78
67818;BME280;54614;47.576;7.524;2023-03-15T00:04:32;98266.78;;;25.09;32.83
67818;BME280;54614;47.576;7.524;2023-03-15T00:06:58;98270.06;;;25.11;33.04
67818;BME280;54614;47.576;7.524;2023-03-15T00:09:24;98269.47;;;25.09;32.78
67818;BME280;54614;47.576;7.524;2023-03-15T00:11:51;98274.63;;;25.10;33.13
67818;BME280;54614;47.576;7.524;2023-03-15T00:14:19;98292.84;;;25.08;32.71
67818;BME280;54614;47.576;7.524;2023-03-15T00:16:46;98299.50;;;25.05;32.86
67818;BME280;54614;47.576;7.524;2023-03-15T00:19:12;98298.25;;;25.08;32.91
67818;BME280;54614;47.576;7.524;2023-03-15T00:21:39;98300.09;;;25.08;33.10
67818;BME280;54614;47.576;7.524;2023-03-15T00:24:11;98316.25;;;25.08;32.75
67818;BME280;54614;47.576;7.524;2023-03-15T00:26:37;98314.59;;;25.06;32.82
67818;BME280;54614;47.576;7.524;2023-03-15T00:29:04;98326.63;;;25.04;33.05
67818;BME280;54614;47.576;7.524;2023-03-15T00:31:30;98338.81;;;25.06;32.75
67818;BME280;54614;47.576;7.524;2023-03-15T00:33:56;98322.91;;;25.05;32.93
67818;BME280;54614;47.576;7.524;2023-03-15T00:36:23;98338.00;;;25.06;33.01
67818;BME280;54614;47.576;7.524;2023-03-15T00:38:51;98328.06;;;25.06;32.86
67818;BME280;54614;47.576;7.524;2023-03-15T00:41:20;98328.50;;;25.03;32.80
67818;BME280;54614;47.576;7.524;2023-03-15T00:43:46;98336.56;;;25.03;32.87
67818;BME280;54614;47.576;7.524;2023-03-15T00:46:14;98340.91;;;25.04;33.06
67818;BME280;54614;47.576;7.524;2023-03-15T00:48:40;98346.31;;;25.04;32.95
67818;BME280;54614;47.576;7.524;2023-03-15T00:53:36;98353.53;;;25.04;32.82
67818;BME280;54614;47.576;7.524;2023-03-15T00:56:06;98365.34;;;25.03;32.72
67818;BME280;54614;47.576;7.524;2023-03-15T00:58:33;98373.22;;;25.04;32.92
67818;BME280;54614;47.576;7.524;2023-03-15T01:00:59;98373.88;;;24.93;32.99
67818;BME280;54614;47.576;7.524;2023-03-15T01:03:27;98376.56;;;25.00;32.96
67818;BME280;54614;47.576;7.524;2023-03-15T01:05:53;98376.13;;;24.96;32.73
67818;BME280;54614;47.576;7.524;2023-03-15T01:08:18;98380.91;;;25.01;32.81
67818;BME280;54614;47.576;7.524;2023-03-15T01:10:44;98397.03;;;25.01;32.79
67818;BME280;54614;47.576;7.524;2023-03-15T01:13:10;98398.91;;;25.00;32.89
67818;BME280;54614;47.576;7.524;2023-03-15T01:15:36;98395.16;;;25.01;32.89
67818;BME280;54614;47.576;7.524;2023-03-15T01:18:02;98409.66;;;25.00;32.86
67818;BME280;54614;47.576;7.524;2023-03-15T01:20:28;98408.63;;;25.01;32.84
67818;BME280;54614;47.576;7.524;2023-03-15T01:22:53;98409.66;;;25.00;32.71
67818;BME280;54614;47.576;7.524;2023-03-15T01:25:19;98409.44;;;25.02;32.73
67818;BME280;54614;47.576;7.524;2023-03-15T01:27:45;98406.38;;;24.98;32.91
67818;BME280;54614;47.576;7.524;2023-03-15T01:30:11;98406.38;;;24.98;32.93
67818;BME280;54614;47.576;7.524;2023-03-15T01:32:37;98411.53;;;25.00;32.77
67818;BME280;54614;47.576;7.524;2023-03-15T01:35:03;98425.00;;;25.00;32.84
67818;BME280;54614;47.576;7.524;2023-03-15T01:37:29;98416.69;;;25.01;33.03
67818;BME280;54614;47.576;7.524;2023-03-15T01:39:55;98427.06;;;24.98;33.01
67818;BME280;54614;47.576;7.524;2023-03-15T01:42:21;98433.06;;;25.00;32.80
67818;BME280;54614;47.576;7.524;2023-03-15T01:44:53;98428.13;;;24.97;33.09
67818;BME280;54614;47.576;7.524;2023-03-15T01:47:20;98426.03;;;24.99;33.14
67818;BME280;54614;47.576;7.524;2023-03-15T01:50:00;98433.69;;;24.95;32.77
67818;BME280;54614;47.576;7.524;2023-03-15T01:52:36;98436.19;;;24.97;33.00
67818;BME280;54614;47.576;7.524;2023-03-15T01:55:12;98437.00;;;24.97;32.97
67818;BME280;54614;47.576;7.524;2023-03-15T01:57:51;98442.81;;;24.94;32.87
67818;BME280;54614;47.576;7.524;2023-03-15T02:00:22;98438.25;;;24.95;33.10
67818;BME280;54614;47.576;7.524;2023-03-15T02:03:03;98440.53;;;24.98;32.98
67818;BME280;54614;47.576;7.524;2023-03-15T02:05:38;98441.75;;;24.95;32.75
67818;BME280;54614;47.576;7.524;2023-03-15T02:08:14;98446.31;;;24.95;33.03
67818;BME280;54614;47.576;7.524;2023-03-15T02:10:43;98444.66;;;24.94;32.73
67818;BME280;54614;47.576;7.524;2023-03-15T02:13:16;98445.72;;;24.93;32.89
67818;BME280;54614;47.576;7.524;2023-03-15T02:15:43;98446.53;;;24.93;32.56
67818;BME280;54614;47.576;7.524;2023-03-15T02:18:15;98451.09;;;24.93;32.90
67818;BME280;54614;47.576;7.524;2023-03-15T02:23:19;98454.81;;;24.92;32.92
67818;BME280;54614;47.576;7.524;2023-03-15T02:28:30;98450.25;;;24.92;32.90
67818;BME280;54614;47.576;7.524;2023-03-15T02:30:56;98453.78;;;24.93;33.06
67818;BME280;54614;47.576;7.524;2023-03-15T02:33:32;98466.41;;;24.92;33.15
67818;BME280;54614;47.576;7.524;2023-03-15T02:36:23;98458.34;;;24.92;32.79
67818;BME280;54614;47.576;7.524;2023-03-15T02:38:51;98459.38;;;24.91;32.94
67818;BME280;54614;47.576;7.524;2023-03-15T02:43:54;98466.41;;;24.92;33.21
67818;BME280;54614;47.576;7.524;2023-03-15T02:46:23;98458.56;;;24.91;32.98
67818;BME280;54614;47.576;7.524;2023-03-15T02:48:51;98463.94;;;24.91;32.92
67818;BME280;54614;47.576;7.524;2023-03-15T02:51:23;98467.88;;;24.88;33.26
67818;BME280;54614;47.576;7.524;2023-03-15T02:53:49;98475.75;;;24.90;32.95
67818;BME280;54614;47.576;7.524;2023-03-15T02:56:15;98475.13;;;24.88;32.89
67818;BME280;54614;47.576;7.524;2023-03-15T02:58:42;98475.94;;;24.88;32.84
67818;BME280;54614;47.576;7.524;2023-03-15T03:01:12;98481.13;;;24.90;32.70
67818;BME280;54614;47.576;7.524;2023-03-15T03:03:41;98483.19;;;24.88;33.11
67818;BME280;54614;47.576;7.524;2023-03-15T03:06:08;98493.13;;;24.87;33.29
67818;BME280;54614;47.576;7.524;2023-03-15T03:08:34;98492.31;;;24.87;32.99
67818;BME280;54614;47.576;7.524;2023-03-15T03:11:00;98493.13;;;24.87;32.76
67818;BME280;54614;47.576;7.524;2023-03-15T03:13:26;98501.22;;;24.87;32.77
67818;BME280;54614;47.576;7.524;2023-03-15T03:15:54;98503.91;;;24.87;32.85
67818;BME280;54614;47.576;7.524;2023-03-15T03:18:30;98504.72;;;24.88;32.58
67818;BME280;54614;47.576;7.524;2023-03-15T03:21:05;98509.72;;;24.84;32.69
67818;BME280;54614;47.576;7.524;2023-03-15T03:23:34;98508.66;;;24.85;33.04
67818;BME280;54614;47.576;7.524;2023-03-15T03:26:01;98510.31;;;24.86;33.05
67818;BME280;54614;47.576;7.524;2023-03-15T03:28:30;98511.56;;;24.84;33.21
67818;BME280;54614;47.576;7.524;2023-03-15T03:30:56;98512.19;;;24.86;32.96
67818;BME280;54614;47.576;7.524;2023-03-15T03:33:23;98523.56;;;24.88;32.78
67818;BME280;54614;47.576;7.524;2023-03-15T03:35:49;98519.44;;;24.85;32.90
67818;BME280;54614;47.576;7.524;2023-03-15T03:38:15;98527.28;;;24.87;32.78
67818;BME280;54614;47.576;7.524;2023-03-15T03:40:41;98532.06;;;24.85;32.69
67818;BME280;54614;47.576;7.524;2023-03-15T03:43:08;98529.38;;;24.85;32.79
67818;BME280;54614;47.576;7.524;2023-03-15T03:45:34;98537.44;;;24.85;32.94
67818;BME280;54614;47.576;7.524;2023-03-15T03:48:00;98541.78;;;24.86;33.02
67818;BME280;54614;47.576;7.524;2023-03-15T03:50:27;98544.47;;;24.86;32.87
67818;BME280;54614;47.576;7.524;2023-03-15T03:52:53;98540.34;;;24.83;33.15
67818;BME280;54614;47.576;7.524;2023-03-15T03:55:19;98543.03;;;24.83;32.79
67818;BME280;54614;47.576;7.524;2023-03-15T03:57:49;98536.81;;;24.83;32.86
67818;BME280;54614;47.576;7.524;2023-03-15T04:00:16;98545.72;;;24.83;33.08
67818;BME280;54614;47.576;7.524;2023-03-15T04:02:42;98549.25;;;24.84;32.83
67818;BME280;54614;47.576;7.524;2023-03-15T04:05:09;98545.13;;;24.81;32.91
67818;BME280;54614;47.576;7.524;2023-03-15T04:07:36;98550.50;;;24.81;32.86
67818;BME280;54614;47.576;7.524;2023-03-15T04:10:04;98548.84;;;24.80;32.77
67818;BME280;54614;47.576;7.524;2023-03-15T04:12:30;98554.00;;;24.82;33.06
67818;BME280;54614;47.576;7.524;2023-03-15T04:14:56;98559.19;;;24.83;32.75
67818;BME280;54614;47.576;7.524;2023-03-15T04:17:22;98562.91;;;24.82;32.62
67818;BME280;54614;47.576;7.524;2023-03-15T04:19:48;98565.81;;;24.81;33.01
67818;BME280;54614;47.576;7.524;2023-03-15T04:22:14;98573.06;;;24.80;32.86
67818;BME280;54614;47.576;7.524;2023-03-15T04:24:41;98574.91;;;24.80;32.83
67818;BME280;54614;47.576;7.524;2023-03-15T04:27:07;98570.56;;;24.79;32.70
67818;BME280;54614;47.576;7.524;2023-03-15T04:29:33;98572.66;;;24.77;33.22
67818;BME280;54614;47.576;7.524;2023-03-15T04:31:59;98572.66;;;24.77;32.64
67818;BME280;54614;47.576;7.524;2023-03-15T04:34:30;98567.88;;;24.79;33.08
67818;BME280;54614;47.576;7.524;2023-03-15T04:36:56;98571.84;;;24.76;33.13
67818;BME280;54614;47.576;7.524;2023-03-15T04:39:22;98569.97;;;24.77;32.53
67818;BME280;54614;47.576;7.524;2023-03-15T04:41:49;98576.16;;;24.77;32.60
67818;BME280;54614;47.576;7.524;2023-03-15T04:44:15;98572.66;;;24.77;32.53
67818;BME280;54614;47.576;7.524;2023-03-15T04:46:42;98579.47;;;24.79;32.63
67818;BME280;54614;47.576;7.524;2023-03-15T04:49:08;98582.59;;;24.76;32.68
67818;BME280;54614;47.576;7.524;2023-03-15T04:51:34;98578.84;;;24.77;32.81
67818;BME280;54614;47.576;7.524;2023-03-15T04:54:00;98577.81;;;24.78;32.65
67818;BME280;54614;47.576;7.524;2023-03-15T04:56:27;98573.50;;;24.70;33.40
67818;BME280;54614;47.576;7.524;2023-03-15T04:58:53;98581.16;;;24.73;32.95
67818;BME280;54614;47.576;7.524;2023-03-15T05:01:23;98584.66;;;24.74;33.11
67818;BME280;54614;47.576;7.524;2023-03-15T05:03:51;98577.59;;;24.80;32.83
67818;BME280;54614;47.576;7.524;2023-03-15T05:06:18;98589.63;;;24.77;32.79
67818;BME280;54614;47.576;7.524;2023-03-15T05:08:43;98587.13;;;24.75;32.94
67818;BME280;54614;47.576;7.524;2023-03-15T05:11:09;98587.97;;;24.76;32.91
67818;BME280;54614;47.576;7.524;2023-03-15T05:13:35;98592.13;;;24.72;33.16
67818;BME280;54614;47.576;7.524;2023-03-15T05:16:01;98600.81;;;24.67;33.21
67818;BME280;54614;47.576;7.524;2023-03-15T05:18:28;98593.34;;;24.76;32.90
67818;BME280;54614;47.576;7.524;2023-03-15T05:20:53;98603.28;;;24.75;32.79
67818;BME280;54614;47.576;7.524;2023-03-15T05:23:23;98605.16;;;24.75;32.64
67818;BME280;54614;47.576;7.524;2023-03-15T05:25:54;98614.25;;;24.74;32.33
67818;BME280;54614;47.576;7.524;2023-03-15T05:28:22;98612.00;;;24.71;32.76
67818;BME280;54614;47.576;7.524;2023-03-15T05:30:48;98615.09;;;24.74;32.30
67818;BME280;54614;47.576;7.524;2023-03-15T05:33:14;98610.13;;;24.71;32.31
67818;BME280;54614;47.576;7.524;2023-03-15T05:35:42;98617.97;;;24.73;32.10
67818;BME280;54614;47.576;7.524;2023-03-15T05:38:12;98618.41;;;24.70;32.29
67818;BME280;54614;47.576;7.524;2023-03-15T05:40:45;98621.09;;;24.70;32.31
67818;BME280;54614;47.576;7.524;2023-03-15T05:43:11;98630.81;;;24.71;31.92
67818;BME280;54614;47.576;7.524;2023-03-15T05:45:38;98634.34;;;24.71;31.55
67818;BME280;54614;47.576;7.524;2023-03-15T05:48:04;98630.81;;;24.71;31.48
67818;BME280;54614;47.576;7.524;2023-03-15T05:50:31;98633.50;;;24.71;31.44
67818;BME280;54614;47.576;7.524;2023-03-15T05:52:57;98633.09;;;24.67;31.16
67818;BME280;54614;47.576;7.524;2023-03-15T05:55:23;98635.38;;;24.64;31.20
67818;BME280;54614;47.576;7.524;2023-03-15T05:57:49;98635.81;;;24.61;31.39
67818;BME280;54614;47.576;7.524;2023-03-15T06:00:15;98633.13;;;24.61;31.16
67818;BME280;54614;47.576;7.524;2023-03-15T06:02:43;98640.38;;;24.60;30.90
67818;BME280;54614;47.576;7.524;2023-03-15T06:05:09;98641.19;;;24.61;31.60
67818;BME280;54614;47.576;7.524;2023-03-15T06:07:35;98654.03;;;24.59;31.91
67818;BME280;54614;47.576;7.524;2023-03-15T06:10:01;98655.47;;;24.61;31.45
67818;BME280;54614;47.576;7.524;2023-03-15T06:12:28;98656.31;;;24.49;32.79
67818;BME280;54614;47.576;7.524;2023-03-15T06:14:53;98657.53;;;24.53;32.69
67818;BME280;54614;47.576;7.524;2023-03-15T06:17:19;98668.50;;;24.64;31.89
67818;BME280;54614;47.576;7.524;2023-03-15T06:19:45;98659.19;;;24.60;32.26
67818;BME280;54614;47.576;7.524;2023-03-15T06:22:11;98667.88;;;24.62;32.10
67818;BME280;54614;47.576;7.524;2023-03-15T06:24:37;98672.59;;;24.73;31.95
67818;BME280;54614;47.576;7.524;2023-03-15T06:27:03;98664.94;;;24.77;31.87
67818;BME280;54614;47.576;7.524;2023-03-15T06:29:29;98673.03;;;24.70;32.23
67818;BME280;54614;47.576;7.524;2023-03-15T06:31:55;98675.28;;;24.73;32.05
67818;BME280;54614;47.576;7.524;2023-03-15T06:34:21;98674.88;;;24.77;31.82
67818;BME280;54614;47.576;7.524;2023-03-15T06:36:47;98674.66;;;24.78;31.69
67818;BME280;54614;47.576;7.524;2023-03-15T06:39:17;98679.00;;;24.79;31.91
67818;BME280;54614;47.576;7.524;2023-03-15T06:41:43;98686.25;;;24.79;31.79
67818;BME280;54614;47.576;7.524;2023-03-15T06:44:09;98688.16;;;24.65;35.39
67818;BME280;54614;47.576;7.524;2023-03-15T06:46:36;98684.84;;;24.63;33.91
67818;BME280;54614;47.576;7.524;2023-03-15T06:49:02;98680.91;;;24.59;33.66
67818;BME280;54614;47.576;7.524;2023-03-15T06:51:28;98673.25;;;24.69;33.13
67818;BME280;54614;47.576;7.524;2023-03-15T06:53:54;98687.28;;;24.84;32.27
67818;BME280;54614;47.576;7.524;2023-03-15T06:56:19;98688.13;;;24.78;32.33
67818;BME280;54614;47.576;7.524;2023-03-15T06:58:45;98699.06;;;24.83;32.19
67818;BME280;54614;47.576;7.524;2023-03-15T07:01:14;98704.03;;;24.80;33.29
67818;BME280;54614;47.576;7.524;2023-03-15T07:03:41;98701.53;;;24.91;32.86
67818;BME280;54614;47.576;7.524;2023-03-15T07:06:07;98707.75;;;24.98;32.65
67818;BME280;54614;47.576;7.524;2023-03-15T07:08:33;98703.41;;;25.04;32.53
67818;BME280;54614;47.576;7.524;2023-03-15T07:10:59;98705.66;;;25.07;32.54
67818;BME280;54614;47.576;7.524;2023-03-15T07:13:25;98707.53;;;25.06;32.79
67818;BME280;54614;47.576;7.524;2023-03-15T07:15:55;98715.59;;;25.06;32.72
67818;BME280;54614;47.576;7.524;2023-03-15T07:18:21;98713.31;;;25.10;32.87
67818;BME280;54614;47.576;7.524;2023-03-15T07:20:56;98711.66;;;25.09;32.36
67818;BME280;54614;47.576;7.524;2023-03-15T07:23:22;98710.44;;;24.92;37.54
67818;BME280;54614;47.576;7.524;2023-03-15T07:25:47;98711.13;;;24.48;41.96
67818;BME280;54614;47.576;7.524;2023-03-15T07:28:14;98711.72;;;24.63;38.64
67818;BME280;54614;47.576;7.524;2023-03-15T07:30:39;98712.13;;;24.80;37.11
67818;BME280;54614;47.576;7.524;2023-03-15T07:33:05;98713.13;;;25.05;34.32
67818;BME280;54614;47.576;7.524;2023-03-15T07:35:31;98711.41;;;25.24;33.58
67818;BME280;54614;47.576;7.524;2023-03-15T07:37:57;98712.66;;;25.21;33.68
67818;BME280;54614;47.576;7.524;2023-03-15T07:40:23;98715.97;;;25.23;33.61
67818;BME280;54614;47.576;7.524;2023-03-15T07:42:50;98723.63;;;25.26;33.57
67818;BME280;54614;47.576;7.524;2023-03-15T07:45:16;98724.22;;;25.28;33.54
67818;BME280;54614;47.576;7.524;2023-03-15T07:47:42;98721.53;;;25.28;33.77
67818;BME280;54614;47.576;7.524;2023-03-15T07:50:09;98728.34;;;25.31;33.54
67818;BME280;54614;47.576;7.524;2023-03-15T07:52:36;98726.47;;;25.38;33.40
67818;BME280;54614;47.576;7.524;2023-03-15T07:55:03;98724.63;;;25.32;33.18
67818;BME280;54614;47.576;7.524;2023-03-15T07:57:32;98730.25;;;25.24;33.29
67818;BME280;54614;47.576;7.524;2023-03-15T07:59:58;98722.56;;;25.27;33.04
67818;BME280;54614;47.576;7.524;2023-03-15T08:02:24;98720.50;;;25.29;33.09
67818;BME280;54614;47.576;7.524;2023-03-15T08:04:50;98716.75;;;25.37;33.18
67818;BME280;54614;47.576;7.524;2023-03-15T08:07:16;98723.34;;;25.41;32.87
67818;BME280;54614;47.576;7.524;2023-03-15T08:09:42;98731.44;;;25.41;33.23
67818;BME280;54614;47.576;7.524;2023-03-15T08:12:08;98725.63;;;25.44;33.20
67818;BME280;54614;47.576;7.524;2023-03-15T08:14:34;98732.84;;;25.50;32.68
67818;BME280;54614;47.576;7.524;2023-03-15T08:17:00;98736.53;;;25.56;32.98
67818;BME280;54614;47.576;7.524;2023-03-15T08:19:26;98734.50;;;25.51;32.77
67818;BME280;54614;47.576;7.524;2023-03-15T08:21:51;98741.34;;;25.47;33.12
67818;BME280;54614;47.576;7.524;2023-03-15T08:24:19;98735.31;;;25.52;32.77
67818;BME280;54614;47.576;7.524;2023-03-15T08:26:46;98735.28;;;24.94;33.88
67818;BME280;54614;47.576;7.524;2023-03-15T08:29:13;98742.31;;;24.88;33.77
67818;BME280;54614;47.576;7.524;2023-03-15T08:31:38;98747.94;;;24.67;34.28
67818;BME280;54614;47.576;7.524;2023-03-15T08:34:04;98733.88;;;24.52;34.70
67818;BME280;54614;47.576;7.524;2023-03-15T08:36:30;98739.88;;;24.54;34.70
67818;BME280;54614;47.576;7.524;2023-03-15T08:38:57;98742.56;;;24.54;34.50
67818;BME280;54614;47.576;7.524;2023-03-15T08:41:23;98746.50;;;24.58;34.50
67818;BME280;54614;47.576;7.524;2023-03-15T08:43:48;98742.34;;;24.75;34.13
67818;BME280;54614;47.576;7.524;2023-03-15T08:46:14;98740.03;;;24.92;33.65
67818;BME280;54614;47.576;7.524;2023-03-15T08:48:42;98737.97;;;25.00;33.57
67818;BME280;54614;47.576;7.524;2023-03-15T08:51:07;98740.47;;;25.02;33.79
67818;BME280;54614;47.576;7.524;2023-03-15T08:53:34;98743.31;;;25.14;33.18
67818;BME280;54614;47.576;7.524;2023-03-15T08:56:00;98743.13;;;25.15;33.33
67818;BME280;54614;47.576;7.524;2023-03-15T08:58:26;98742.91;;;25.17;33.29
67818;BME280;54614;47.576;7.524;2023-03-15T09:00:52;98753.06;;;25.15;33.17
67818;BME280;54614;47.576;7.524;2023-03-15T09:03:19;98755.53;;;25.16;33.11
67818;BME280;54614;47.576;7.524;2023-03-15T09:05:45;98759.47;;;25.20;32.95
67818;BME280;54614;47.576;7.524;2023-03-15T09:08:11;98758.81;;;25.25;32.76
67818;BME280;54614;47.576;7.524;2023-03-15T09:10:39;98757.38;;;25.29;32.47
67818;BME280;54614;47.576;7.524;2023-03-15T09:13:04;98766.50;;;25.21;32.53
67818;BME280;54614;47.576;7.524;2023-03-15T09:15:30;98759.00;;;25.30;32.32
67818;BME280;54614;47.576;7.524;2023-03-15T09:17:56;98759.41;;;25.33;32.21
67818;BME280;54614;47.576;7.524;2023-03-15T09:20:22;98762.94;;;25.34;32.40
67818;BME280;54614;47.576;7.524;2023-03-15T09:22:55;98772.06;;;25.33;32.35
67818;BME280;54614;47.576;7.524;2023-03-15T09:25:23;98771.00;;;25.41;32.16
67818;BME280;54614;47.576;7.524;2023-03-15T09:27:49;98771.78;;;25.48;32.08
67818;BME280;54614;47.576;7.524;2023-03-15T09:30:16;98768.69;;;25.51;31.69
67818;BME280;54614;47.576;7.524;2023-03-15T09:32:42;98771.34;;;25.57;31.93
67818;BME280;54614;47.576;7.524;2023-03-15T09:35:14;98760.81;;;25.49;31.76
67818;BME280;54614;47.576;7.524;2023-03-15T09:37:40;98768.03;;;25.55;31.71
67818;BME280;54614;47.576;7.524;2023-03-15T09:40:32;98763.94;;;25.46;31.75
67818;BME280;54614;47.576;7.524;2023-03-15T09:43:21;98768.50;;;25.46;32.23
67818;BME280;54614;47.576;7.524;2023-03-15T09:46:15;98770.34;;;25.45;31.99
67818;BME280;54614;47.576;7.524;2023-03-15T09:49:07;98768.69;;;25.51;31.74
67818;BME280;54614;47.576;7.524;2023-03-15T09:51:48;98779.63;;;25.56;32.03
67818;BME280;54614;47.576;7.524;2023-03-15T09:54:28;98776.28;;;25.74;31.68
67818;BME280;54614;47.576;7.524;2023-03-15T09:57:11;98790.72;;;25.86;31.16
67818;BME280;54614;47.576;7.524;2023-03-15T09:59:45;98779.34;;;25.84;31.40
67818;BME280;54614;47.576;7.524;2023-03-15T10:02:27;98780.13;;;25.91;31.22
67818;BME280;54614;47.576;7.524;2023-03-15T10:05:07;98772.81;;;26.05;31.26
67818;BME280;54614;47.576;7.524;2023-03-15T10:07:36;98783.69;;;25.85;31.01
67818;BME280;54614;47.576;7.524;2023-03-15T10:10:08;98776.44;;;25.85;30.88
67818;BME280;54614;47.576;7.524;2023-03-15T10:12:45;98770.03;;;25.80;31.37
67818;BME280;54614;47.576;7.524;2023-03-15T10:15:31;98767.91;;;25.88;30.87
67818;BME280;54614;47.576;7.524;2023-03-15T10:21:48;98762.41;;;25.63;31.15
67818;BME280;54614;47.576;7.524;2023-03-15T10:23:52;98765.75;;;25.65;31.28
67818;BME280;54614;47.576;7.524;2023-03-15T10:26:24;98753.09;;;25.66;30.99
67818;BME280;54614;47.576;7.524;2023-03-15T10:28:52;98759.34;;;25.53;31.42
67818;BME280;54614;47.576;7.524;2023-03-15T10:31:25;98750.03;;;25.49;30.95
67818;BME280;54614;47.576;7.524;2023-03-15T10:33:53;98749.44;;;25.47;31.47
67818;BME280;54614;47.576;7.524;2023-03-15T10:36:22;98756.28;;;25.43;31.36
67818;BME280;54614;47.576;7.524;2023-03-15T10:38:48;98749.25;;;25.42;31.35
67818;BME280;54614;47.576;7.524;2023-03-15T10:41:43;98751.72;;;25.44;31.40
67818;BME280;54614;47.576;7.524;2023-03-15T10:44:23;98744.06;;;25.41;31.73
67818;BME280;54614;47.576;7.524;2023-03-15T10:49:39;98739.91;;;25.45;31.42
67818;BME280;54614;47.576;7.524;2023-03-15T10:52:44;98746.31;;;25.44;31.59
67818;BME280;54614;47.576;7.524;2023-03-15T10:55:13;98744.88;;;25.41;31.46
67818;BME280;54614;47.576;7.524;2023-03-15T10:57:52;98746.53;;;25.42;31.86
67818;BME280;54614;47.576;7.524;2023-03-15T11:00:34;98752.53;;;25.44;32.06
67818;BME280;54614;47.576;7.524;2023-03-15T11:03:17;98749.84;;;25.44;32.02
67818;BME280;54614;47.576;7.524;2023-03-15T11:05:53;98756.06;;;25.45;32.61
67818;BME280;54614;47.576;7.524;2023-03-15T11:08:23;98744.47;;;25.44;32.64
67818;BME280;54614;47.576;7.524;2023-03-15T11:10:58;98745.69;;;25.48;32.69
67818;BME280;54614;47.576;7.524;2023-03-15T11:13:26;98745.47;;;25.50;32.55
67818;BME280;54614;47.576;7.524;2023-03-15T11:18:46;98741.09;;;25.55;32.91
67818;BME280;54614;47.576;7.524;2023-03-15T11:21:17;98739.03;;;25.57;32.63
67818;BME280;54614;47.576;7.524;2023-03-15T11:23:49;98742.31;;;25.59;33.07
67818;BME280;54614;47.576;7.524;2023-03-15T11:26:25;98738.81;;;25.59;33.13
67818;BME280;54614;47.576;7.524;2023-03-15T11:28:58;98753.72;;;25.61;33.05
67818;BME280;54614;47.576;7.524;2023-03-15T11:31:27;98745.00;;;25.73;33.12
67818;BME280;54614;47.576;7.524;2023-03-15T11:33:58;98740.03;;;25.69;33.30
67818;BME280;54614;47.576;7.524;2023-03-15T11:36:32;98728.03;;;25.65;33.29
67818;BME280;54614;47.576;7.524;2023-03-15T11:39:01;98726.78;;;25.68;33.64
67818;BME280;54614;47.576;7.524;2023-03-15T11:41:33;98727.38;;;25.70;33.38
67818;BME280;54614;47.576;7.524;2023-03-15T11:44:56;98731.63;;;25.91;33.54
67818;BME280;54614;47.576;7.524;2023-03-15T11:50:14;98723.19;;;25.81;34.32
67818;BME280;54614;47.576;7.524;2023-03-15T11:52:40;98724.81;;;25.82;33.98
67818;BME280;54614;47.576;7.524;2023-03-15T11:55:26;98715.22;;;25.92;33.99
67818;BME280;54614;47.576;7.524;2023-03-15T11:57:53;98713.47;;;26.11;33.47
67818;BME280;54614;47.576;7.524;2023-03-15T12:03:39;98715.63;;;26.27;33.56
67818;BME280;54614;47.576;7.524;2023-03-15T12:08:52;98719.31;;;26.08;33.95
67818;BME280;54614;47.576;7.524;2023-03-15T12:14:02;98714.13;;;26.07;33.98
67818;BME280;54614;47.576;7.524;2023-03-15T12:16:47;98706.94;;;25.94;34.08
67818;BME280;54614;47.576;7.524;2023-03-15T12:19:19;98711.94;;;25.90;34.21
67818;BME280;54614;47.576;7.524;2023-03-15T12:21:56;98710.50;;;25.88;33.82
67818;BME280;54614;47.576;7.524;2023-03-15T12:24:36;98695.16;;;25.88;34.19
67818;BME280;54614;47.576;7.524;2023-03-15T12:27:16;98702.91;;;26.10;33.86
67818;BME280;54614;47.576;7.524;2023-03-15T12:29:45;98709.34;;;26.09;34.07
67818;BME280;54614;47.576;7.524;2023-03-15T12:32:16;98712.25;;;26.07;33.91
67818;BME280;54614;47.576;7.524;2023-03-15T12:34:54;98707.03;;;26.12;33.52
67818;BME280;54614;47.576;7.524;2023-03-15T12:55:40;98684.41;;;26.45;32.34
67818;BME280;54614;47.576;7.524;2023-03-15T12:58:11;98682.47;;;26.52;32.12
67818;BME280;54614;47.576;7.524;2023-03-15T13:00:41;98676.63;;;26.55;32.39
67818;BME280;54614;47.576;7.524;2023-03-15T13:03:12;98675.56;;;26.56;32.19
67818;BME280;54614;47.576;7.524;2023-03-15T13:07:23;98678.28;;;26.56;31.92
67818;BME280;54614;47.576;7.524;2023-03-15T13:10:14;98678.28;;;26.56;32.01
67818;BME280;54614;47.576;7.524;2023-03-15T13:12:54;98674.75;;;26.55;32.13
67818;BME280;54614;47.576;7.524;2023-03-15T13:18:25;98663.75;;;26.57;32.07
67818;BME280;54614;47.576;7.524;2023-03-15T13:21:12;98664.78;;;26.56;31.68
67818;BME280;54614;47.576;7.524;2023-03-15T13:23:50;98669.56;;;26.54;31.71
67818;BME280;54614;47.576;7.524;2023-03-15T13:26:47;98660.66;;;26.53;31.99
67818;BME280;54614;47.576;7.524;2023-03-15T13:29:23;98663.34;;;26.53;31.77
67818;BME280;54614;47.576;7.524;2023-03-15T13:32:12;98651.75;;;26.53;31.52
67818;BME280;54614;47.576;7.524;2023-03-15T13:34:40;98653.00;;;26.50;31.75
67818;BME280;54614;47.576;7.524;2023-03-15T13:37:21;98661.09;;;26.50;31.66
67818;BME280;54614;47.576;7.524;2023-03-15T13:39:58;98661.56;;;26.47;31.69
67818;BME280;54614;47.576;7.524;2023-03-15T13:42:25;98658.03;;;26.47;32.03
67818;BME280;54614;47.576;7.524;2023-03-15T13:45:14;98656.16;;;26.47;31.94
67818;BME280;54614;47.576;7.524;2023-03-15T13:47:43;98652.63;;;26.47;31.92
67818;BME280;54614;47.576;7.524;2023-03-15T13:50:19;98649.94;;;26.47;31.84
67818;BME280;54614;47.576;7.524;2023-03-15T13:52:47;98653.00;;;26.50;31.37
67818;BME280;54614;47.576;7.524;2023-03-15T13:55:20;98653.00;;;26.50;31.88
67818;BME280;54614;47.576;7.524;2023-03-15T13:57:56;98651.59;;;26.48;31.53
67818;BME280;54614;47.576;7.524;2023-03-15T14:00:29;98652.34;;;26.55;31.43
67818;BME280;54614;47.576;7.524;2023-03-15T14:03:02;98657.59;;;26.50;31.78
67818;BME280;54614;47.576;7.524;2023-03-15T14:05:33;98656.22;;;26.41;31.74
67818;BME280;54614;47.576;7.524;2023-03-15T14:08:21;98660.81;;;26.58;31.31